createdAt,value
2019-04-21T00:00:15.084Z,5.82
2019-04-21T00:02:28.076Z,5.77
2019-04-21T00:04:43.251Z,5.75
2019-04-21T00:07:01.246Z,5.75
2019-04-21T00:09:14.798Z,5.74
2019-04-21T00:11:16.077Z,5.74
2019-04-21T00:13:17.872Z,5.70
2019-04-21T00:15:20.475Z,5.64
2019-04-21T00:17:23.174Z,5.59
2019-04-21T00:19:33.191Z,5.56
2019-04-21T00:21:45.024Z,5.54
2019-04-21T00:24:01.309Z,5.52
2019-04-21T00:26:03.946Z,5.49
2019-04-21T00:28:23.889Z,5.50
2019-04-21T00:30:35.053Z,5.46
2019-04-21T00:32:33.518Z,5.42
2019-04-21T00:34:28.144Z,5.37
2019-04-21T00:36:48.876Z,5.38
2019-04-21T00:39:14.557Z,5.36
2019-04-21T00:41:16.105Z,5.37
2019-04-21T00:43:15.157Z,5.37
2019-04-21T00:45:23.369Z,5.32
2019-04-21T00:47:34.041Z,5.28
2019-04-21T00:49:45.262Z,5.25
2019-04-21T00:52:04.247Z,5.20
2019-04-21T00:54:13.337Z,5.18
2019-04-21T00:56:34.016Z,5.13
2019-04-21T00:58:31.194Z,5.11
2019-04-21T01:00:32.335Z,5.07
2019-04-21T01:02:52.849Z,5.05
2019-04-21T01:05:01.735Z,5.02
2019-04-21T01:07:07.291Z,5.01
2019-04-21T01:09:09.396Z,4.97
2019-04-21T01:11:19.663Z,4.94
2019-04-21T01:13:36.292Z,4.91
2019-04-21T01:15:43.579Z,4.87
2019-04-21T01:17:50.484Z,4.83
2019-04-21T01:19:50.720Z,4.84
2019-04-21T01:21:42.502Z,4.85
2019-04-21T01:23:48.838Z,4.82
2019-04-21T01:26:10.596Z,4.83
2019-04-21T01:28:21.748Z,4.81
2019-04-21T01:30:34.327Z,4.77
2019-04-21T01:32:42.718Z,4.74
2019-04-21T01:34:56.066Z,4.72
2019-04-21T01:36:58.873Z,4.67
2019-04-21T01:39:18.165Z,4.67
2019-04-21T01:41:21.799Z,4.66
2019-04-21T01:43:23.527Z,4.63
2019-04-21T01:45:31.701Z,4.58
2019-04-21T01:47:40.885Z,4.53
2019-04-21T01:49:41.849Z,4.47
2019-04-21T01:52:17.818Z,4.43
2019-04-21T01:54:31.466Z,4.43
2019-04-21T01:56:40.503Z,4.41
2019-04-21T01:58:42.896Z,4.44
2019-04-21T02:01:00.842Z,4.46
2019-04-21T02:03:36.320Z,4.47
2019-04-21T02:05:32.971Z,4.47
2019-04-21T02:07:42.543Z,4.44
2019-04-21T02:10:00.863Z,4.42
2019-04-21T02:12:09.755Z,4.39
2019-04-21T02:14:19.623Z,4.35
2019-04-21T02:16:25.152Z,4.30
2019-04-21T02:25:13.965Z,4.20
2019-04-21T02:27:19.209Z,4.17
2019-04-21T02:29:33.134Z,4.13
2019-04-21T02:31:54.264Z,4.10
2019-04-21T02:33:58.509Z,4.10
2019-04-21T02:36:15.597Z,4.10
2019-04-21T02:38:21.008Z,4.07
2019-04-21T02:42:30.556Z,4.02
2019-04-21T02:48:56.477Z,3.93
2019-04-21T02:50:54.985Z,3.88
2019-04-21T02:53:11.495Z,3.84
2019-04-21T02:55:17.472Z,3.78
2019-04-21T02:57:22.928Z,3.74
2019-04-21T02:59:42.264Z,3.68
2019-04-21T03:04:26.688Z,3.63
2019-04-21T03:06:24.949Z,3.59
2019-04-21T03:10:53.551Z,3.60
2019-04-21T03:12:59.743Z,3.60
2019-04-21T03:15:03.690Z,3.59
2019-04-21T03:19:36.475Z,3.58
2019-04-21T03:21:29.182Z,3.57
2019-04-21T03:23:46.818Z,3.56
2019-04-21T03:28:13.571Z,3.51
2019-04-21T03:30:10.361Z,3.48
2019-04-21T03:34:41.831Z,3.38
2019-04-21T03:36:50.330Z,3.35
2019-04-21T03:42:48.113Z,3.25
2019-04-21T03:44:59.499Z,3.24
2019-04-21T03:47:09.141Z,3.24
2019-04-21T03:49:22.697Z,3.25
2019-04-21T03:51:25.696Z,3.25
2019-04-21T03:55:53.334Z,3.26
2019-04-21T04:00:10.313Z,3.30
2019-04-21T04:02:18.519Z,3.30
2019-04-21T04:04:31.409Z,3.33
2019-04-21T04:06:36.153Z,3.35
2019-04-21T04:15:34.679Z,5.67
2019-04-21T04:17:25.674Z,6.90
2019-04-21T04:21:47.824Z,8.64
2019-04-21T04:23:52.942Z,8.60
2019-04-21T04:26:00.860Z,7.78
2019-04-21T04:30:27.657Z,6.28
2019-04-21T04:32:23.448Z,5.73
2019-04-21T04:37:01.925Z,5.05
2019-04-21T04:39:02.626Z,4.85
2019-04-21T04:41:05.918Z,4.73
2019-04-21T04:43:19.282Z,4.64
2019-04-21T04:45:26.448Z,4.48
2019-04-21T04:52:04.839Z,4.37
2019-04-21T04:53:46.890Z,4.43
2019-04-21T04:56:07.675Z,4.44
2019-04-21T04:58:16.063Z,4.51
2019-04-21T05:02:28.134Z,4.62
2019-04-21T05:04:36.377Z,4.71
2019-04-21T05:06:51.250Z,4.76
2019-04-21T05:11:07.770Z,4.93
2019-04-21T05:13:07.065Z,5.04
2019-04-21T05:23:40.780Z,5.49
2019-04-21T05:25:42.994Z,5.51
2019-04-21T05:27:46.905Z,5.61
2019-04-21T05:30:08.399Z,5.69
2019-04-21T05:32:37.910Z,5.83
2019-04-21T05:34:31.886Z,6.10
2019-04-21T05:36:50.554Z,6.43
2019-04-21T05:39:01.288Z,6.41
2019-04-21T05:41:00.417Z,6.46
2019-04-21T05:43:26.501Z,6.58
2019-04-21T05:45:50.031Z,6.71
2019-04-21T05:47:55.832Z,6.78
2019-04-21T05:50:00.904Z,6.85
2019-04-21T05:52:08.105Z,6.97
2019-04-21T05:54:29.674Z,7.08
2019-04-21T05:56:32.114Z,7.08
2019-04-21T05:58:37.861Z,7.27
2019-04-21T06:03:11.819Z,7.63
2019-04-21T06:05:20.621Z,7.84
2019-04-21T06:07:23.131Z,8.28
2019-04-21T06:09:37.234Z,8.50
2019-04-21T06:11:35.961Z,8.69
2019-04-21T06:13:55.175Z,9.07
2019-04-21T06:15:57.956Z,9.05
2019-04-21T06:18:13.482Z,9.05
2019-04-21T06:20:13.643Z,8.93
2019-04-21T06:22:19.159Z,8.87
2019-04-21T06:24:40.383Z,8.87
2019-04-21T06:28:54.502Z,8.98
2019-04-21T06:31:05.472Z,9.38
2019-04-21T06:33:06.479Z,9.59
2019-04-21T06:35:41.525Z,9.63
2019-04-21T06:40:01.877Z,9.61
2019-04-21T06:41:53.146Z,9.86
2019-04-21T06:44:09.594Z,10.06
2019-04-21T06:46:21.412Z,10.09
2019-04-21T06:50:39.879Z,10.25
2019-04-21T06:52:51.681Z,10.37
2019-04-21T06:54:57.238Z,10.44
2019-04-21T06:56:58.505Z,10.48
2019-04-21T06:59:06.051Z,10.47
2019-04-21T07:01:21.650Z,10.83
2019-04-21T07:03:32.445Z,10.95
2019-04-21T07:05:33.539Z,11.17
2019-04-21T07:07:52.110Z,11.26
2019-04-21T07:09:52.914Z,11.33
2019-04-21T07:11:57.567Z,11.39
2019-04-21T07:14:19.560Z,11.62
2019-04-21T07:16:18.891Z,11.70
2019-04-21T07:18:32.653Z,11.81
2019-04-21T07:20:30.769Z,11.96
2019-04-21T07:22:44.659Z,12.07
2019-04-21T07:24:52.002Z,12.22
2019-04-21T07:26:55.608Z,12.37
2019-04-21T07:29:21.941Z,12.43
2019-04-21T07:31:22.426Z,12.60
2019-04-21T07:33:44.785Z,12.68
2019-04-21T07:35:28.568Z,12.75
2019-04-21T07:37:37.346Z,12.93
2019-04-21T07:39:45.076Z,12.93
2019-04-21T07:41:49.667Z,13.06
2019-04-21T07:43:55.935Z,13.12
2019-04-21T07:46:08.972Z,13.14
2019-04-21T07:48:19.064Z,13.32
2019-04-21T07:50:38.485Z,13.40
2019-04-21T07:53:00.944Z,13.52
2019-04-21T07:55:12.439Z,13.66
2019-04-21T07:57:02.992Z,13.86
2019-04-21T07:59:23.952Z,13.95
2019-04-21T08:03:35.454Z,14.03
2019-04-21T08:05:46.053Z,14.04
2019-04-21T08:09:57.229Z,14.20
2019-04-21T08:12:04.402Z,14.33
2019-04-21T08:14:17.507Z,14.45
2019-04-21T08:16:24.126Z,14.65
2019-04-21T08:18:33.673Z,14.76
2019-04-21T08:20:34.922Z,14.86
2019-04-21T08:24:58.795Z,14.92
2019-04-21T08:27:07.854Z,15.00
2019-04-21T08:29:22.472Z,15.01
2019-04-21T08:31:25.756Z,15.08
2019-04-21T08:33:32.596Z,15.19
2019-04-21T08:36:00.789Z,15.30
2019-04-21T08:37:43.292Z,15.42
2019-04-21T08:40:04.495Z,15.69
2019-04-21T08:41:58.752Z,15.76
2019-04-21T08:44:10.672Z,15.86
2019-04-21T08:46:20.320Z,15.96
2019-04-21T08:48:22.421Z,16.09
2019-04-21T08:50:34.225Z,16.15
2019-04-21T08:52:49.312Z,16.26
2019-04-21T08:54:51.542Z,16.30
2019-04-21T08:57:02.492Z,16.34
2019-04-21T08:59:31.727Z,16.32
2019-04-21T09:01:47.390Z,16.31
2019-04-21T09:03:59.905Z,16.48
2019-04-21T09:06:07.531Z,16.58
2019-04-21T09:08:15.257Z,16.68
2019-04-21T09:10:19.426Z,16.69
2019-04-21T09:12:33.352Z,16.86
2019-04-21T09:14:38.978Z,16.86
2019-04-21T09:16:40.787Z,17.00
2019-04-21T09:18:47.058Z,17.06
2019-04-21T09:21:04.681Z,17.25
2019-04-21T09:23:06.395Z,17.36
2019-04-21T09:25:21.153Z,17.35
2019-04-21T09:27:29.300Z,17.46
2019-04-21T09:29:26.538Z,17.44
2019-04-21T09:31:30.948Z,17.61
2019-04-21T09:33:40.389Z,17.68
2019-04-21T09:35:50.148Z,17.74
2019-04-21T09:37:58.297Z,17.81
2019-04-21T09:39:57.871Z,17.87
2019-04-21T09:42:06.591Z,17.87
2019-04-21T09:44:22.047Z,17.89
2019-04-21T09:46:23.227Z,17.83
2019-04-21T09:48:43.744Z,17.87
2019-04-21T09:50:39.614Z,18.00
2019-04-21T09:52:54.196Z,18.16
2019-04-21T09:55:04.224Z,18.12
2019-04-21T09:57:08.914Z,18.11
2019-04-21T09:59:19.315Z,18.16
2019-04-21T10:01:26.831Z,18.26
2019-04-21T10:03:36.725Z,18.33
2019-04-21T10:05:38.396Z,18.37
2019-04-21T10:07:44.950Z,18.39
2019-04-21T10:09:52.444Z,18.46
2019-04-21T10:11:58.769Z,18.55
2019-04-21T10:14:19.876Z,18.46
2019-04-21T10:16:27.903Z,18.45
2019-04-21T10:18:35.730Z,18.47
2019-04-21T10:20:42.830Z,18.56
2019-04-21T10:22:49.500Z,18.62
2019-04-21T10:24:56.389Z,18.81
2019-04-21T10:27:14.763Z,18.96
2019-04-21T10:29:25.757Z,19.06
2019-04-21T10:31:32.484Z,19.14
2019-04-21T10:33:39.962Z,19.16
2019-04-21T10:35:46.800Z,19.15
2019-04-21T10:38:03.399Z,19.14
2019-04-21T10:40:01.848Z,19.30
2019-04-21T10:42:09.064Z,19.23
2019-04-21T10:44:16.870Z,19.28
2019-04-21T10:46:24.748Z,19.34
2019-04-21T10:48:34.496Z,19.39
2019-04-21T10:50:41.075Z,19.41
2019-04-21T10:53:02.784Z,19.49
2019-04-21T10:55:30.969Z,19.49
2019-04-21T10:57:19.997Z,19.51
2019-04-21T10:59:28.995Z,19.46
2019-04-21T11:01:36.873Z,19.64
2019-04-21T11:03:45.191Z,19.59
2019-04-21T11:05:54.586Z,19.65
2019-04-21T11:08:12.356Z,19.76
2019-04-21T11:10:09.960Z,19.93
2019-04-21T11:12:17.642Z,19.91
2019-04-21T11:14:25.349Z,19.93
2019-04-21T11:16:33.126Z,19.90
2019-04-21T11:18:40.026Z,19.98
2019-04-21T11:20:46.945Z,19.97
2019-04-21T11:22:53.703Z,19.94
2019-04-21T11:25:00.773Z,19.88
2019-04-21T11:27:07.147Z,19.88
2019-04-21T11:29:15.012Z,19.88
2019-04-21T11:31:22.819Z,19.99
2019-04-21T11:33:29.332Z,20.07
2019-04-21T11:35:37.165Z,20.14
2019-04-21T11:37:44.082Z,20.15
2019-04-21T11:40:01.301Z,20.19
2019-04-21T11:42:04.070Z,20.09
2019-04-21T11:44:10.478Z,20.17
2019-04-21T11:46:18.226Z,20.38
2019-04-21T11:48:30.278Z,20.53
2019-04-21T11:50:37.308Z,20.61
2019-04-21T11:52:45.087Z,20.49
2019-04-21T11:54:53.066Z,20.53
2019-04-21T11:57:02.219Z,20.48
2019-04-21T11:59:07.973Z,20.55
2019-04-21T12:01:15.844Z,20.65
2019-04-21T12:03:23.974Z,20.77
2019-04-21T12:05:30.511Z,20.85
2019-04-21T12:07:37.591Z,21.07
2019-04-21T12:09:43.927Z,21.21
2019-04-21T12:11:51.438Z,21.25
2019-04-21T12:13:58.441Z,21.34
2019-04-21T12:16:07.134Z,21.52
2019-04-21T12:18:15.531Z,21.53
2019-04-21T12:20:22.196Z,21.31
2019-04-21T12:22:31.687Z,21.06
2019-04-21T12:24:38.070Z,21.02
2019-04-21T12:26:46.354Z,20.99
2019-04-21T12:28:53.575Z,20.91
2019-04-21T12:31:00.768Z,21.05
2019-04-21T12:33:09.861Z,21.21
2019-04-21T12:35:17.650Z,21.39
2019-04-21T12:37:24.689Z,21.52
2019-04-21T12:39:32.634Z,21.67
2019-04-21T12:41:40.431Z,21.70
2019-04-21T12:43:48.582Z,21.99
2019-04-21T12:45:55.893Z,21.99
2019-04-21T12:48:02.414Z,22.09
2019-04-21T12:50:10.986Z,21.98
2019-04-21T12:52:17.754Z,22.03
2019-04-21T12:54:24.150Z,22.03
2019-04-21T12:56:31.608Z,22.04
2019-04-21T12:58:39.468Z,22.04
2019-04-21T13:00:47.140Z,22.08
2019-04-21T13:02:54.066Z,21.75
2019-04-21T13:05:02.211Z,21.53
2019-04-21T13:07:09.842Z,21.43
2019-04-21T13:09:18.713Z,21.47
2019-04-21T13:11:25.442Z,21.55
2019-04-21T13:13:32.242Z,21.68
2019-04-21T13:15:39.787Z,21.82
2019-04-21T13:17:47.361Z,21.81
2019-04-21T13:19:53.983Z,21.79
2019-04-21T13:22:01.551Z,21.71
2019-04-21T13:24:08.342Z,21.51
2019-04-21T13:26:15.087Z,21.52
2019-04-21T13:28:22.925Z,21.49
2019-04-21T13:30:30.571Z,21.32
2019-04-21T13:32:37.445Z,21.26
2019-04-21T13:34:44.247Z,21.29
2019-04-21T13:36:51.775Z,21.54
2019-04-21T13:39:45.847Z,21.86
2019-04-21T13:41:42.955Z,21.77
2019-04-21T13:43:39.253Z,21.54
2019-04-21T13:45:47.680Z,21.37
2019-04-21T13:47:54.757Z,21.27
2019-04-21T13:50:02.999Z,21.16
2019-04-21T13:52:10.959Z,21.03
2019-04-21T13:54:18.135Z,21.02
2019-04-21T13:56:24.843Z,21.04
2019-04-21T13:58:32.668Z,21.19
2019-04-21T14:00:39.982Z,21.34
2019-04-21T14:02:46.960Z,21.55
2019-04-21T14:04:53.729Z,21.59
2019-04-21T14:07:00.881Z,21.71
2019-04-21T14:09:10.854Z,21.86
2019-04-21T14:11:19.756Z,21.96
2019-04-21T14:13:26.825Z,21.92
2019-04-21T14:15:33.376Z,22.00
2019-04-21T14:17:39.799Z,22.15
2019-04-21T14:19:46.040Z,22.10
2019-04-21T14:21:53.145Z,22.24
2019-04-21T14:24:01.180Z,22.22
2019-04-21T14:26:08.702Z,22.09
2019-04-21T14:28:15.658Z,21.86
2019-04-21T14:30:23.771Z,21.30
2019-04-21T14:32:30.156Z,21.01
2019-04-21T14:34:37.671Z,20.90
2019-04-21T14:36:44.557Z,20.95
2019-04-21T14:38:52.356Z,21.00
2019-04-21T14:40:59.897Z,20.93
2019-04-21T14:43:07.922Z,20.67
2019-04-21T14:45:20.802Z,20.42
2019-04-21T14:47:33.308Z,20.40
2019-04-21T14:49:42.512Z,20.43
2019-04-21T14:51:56.870Z,20.21
2019-04-21T14:54:15.237Z,20.13
2019-04-21T14:56:22.112Z,20.26
2019-04-21T14:58:28.412Z,20.31
2019-04-21T15:00:48.292Z,20.25
2019-04-21T15:02:55.859Z,20.22
2019-04-21T15:05:03.910Z,20.22
2019-04-21T15:07:10.490Z,19.96
2019-04-21T15:09:16.916Z,19.81
2019-04-21T15:11:24.223Z,19.59
2019-04-21T15:13:32.192Z,19.39
2019-04-21T15:15:39.434Z,19.40
2019-04-21T15:17:46.304Z,19.35
2019-04-21T15:19:59.757Z,19.21
2019-04-21T15:22:00.982Z,19.28
2019-04-21T15:24:08.591Z,19.37
2019-04-21T15:26:15.564Z,19.46
2019-04-21T15:28:22.202Z,19.46
2019-04-21T15:30:28.861Z,19.41
2019-04-21T15:32:36.751Z,19.36
2019-04-21T15:34:44.261Z,19.17
2019-04-21T15:36:52.281Z,18.98
2019-04-21T15:38:58.804Z,18.85
2019-04-21T15:41:10.037Z,18.85
2019-04-21T15:43:14.671Z,18.87
2019-04-21T15:45:21.282Z,18.79
2019-04-21T15:47:28.244Z,18.68
2019-04-21T15:50:00.912Z,18.67
2019-04-21T15:52:01.935Z,18.76
2019-04-21T15:54:08.929Z,18.84
2019-04-21T15:56:26.865Z,18.87
2019-04-21T15:58:38.870Z,18.79
2019-04-21T16:00:47.007Z,18.79
2019-04-21T16:02:53.294Z,18.75
2019-04-21T16:05:01.000Z,18.71
2019-04-21T16:07:07.760Z,18.73
2019-04-21T16:09:16.695Z,18.67
2019-04-21T16:11:22.296Z,18.69
2019-04-21T16:13:29.888Z,18.47
2019-04-21T16:15:37.052Z,18.37
2019-04-21T16:17:43.505Z,18.39
2019-04-21T16:19:50.027Z,18.33
2019-04-21T16:21:56.817Z,18.44
2019-04-21T16:24:04.591Z,18.26
2019-04-21T16:26:12.655Z,18.12
2019-04-21T16:28:19.317Z,18.29
2019-04-21T16:30:28.688Z,18.48
2019-04-21T16:32:36.346Z,18.51
2019-04-21T16:34:49.015Z,18.52
2019-04-21T16:36:51.776Z,18.58
2019-04-21T16:38:59.546Z,18.57
2019-04-21T16:41:10.580Z,18.28
2019-04-21T16:43:16.378Z,18.39
2019-04-21T16:45:25.317Z,18.23
2019-04-21T16:47:32.467Z,18.05
2019-04-21T16:49:40.292Z,18.07
2019-04-21T16:51:48.200Z,17.98
2019-04-21T16:53:56.066Z,17.95
2019-04-21T16:56:17.114Z,17.82
2019-04-21T16:58:32.640Z,17.81
2019-04-21T17:00:58.622Z,17.76
2019-04-21T17:02:56.670Z,17.57
2019-04-21T17:05:04.628Z,17.47
2019-04-21T17:07:11.514Z,17.38
2019-04-21T17:09:18.810Z,17.52
2019-04-21T17:11:30.427Z,17.45
2019-04-21T17:13:33.593Z,17.12
2019-04-21T17:15:56.847Z,16.84
2019-04-21T17:18:05.549Z,16.63
2019-04-21T17:20:11.848Z,16.36
2019-04-21T17:22:04.105Z,16.16
2019-04-21T17:24:10.747Z,15.95
2019-04-21T17:26:17.293Z,15.81
2019-04-21T17:28:23.612Z,15.70
2019-04-21T17:30:30.589Z,15.58
2019-04-21T17:32:42.355Z,15.49
2019-04-21T17:34:45.812Z,15.38
2019-04-21T17:36:53.019Z,15.27
2019-04-21T17:39:02.227Z,15.18
2019-04-21T17:41:19.365Z,15.05
2019-04-21T17:43:18.421Z,14.97
2019-04-21T17:45:26.948Z,14.92
2019-04-21T17:47:44.916Z,14.81
2019-04-21T17:49:44.529Z,14.69
2019-04-21T17:52:09.851Z,14.60
2019-04-21T17:54:29.682Z,14.49
2019-04-21T17:56:53.858Z,14.42
2019-04-21T17:59:01.324Z,14.29
2019-04-21T18:03:27.524Z,14.13
2019-04-21T18:05:27.505Z,14.04
2019-04-21T18:07:40.457Z,13.92
2019-04-21T18:09:49.824Z,13.89
2019-04-21T18:11:51.069Z,13.84
2019-04-21T18:13:43.863Z,13.78
2019-04-21T18:16:02.875Z,13.70
2019-04-21T18:17:59.076Z,13.66
2019-04-21T18:20:15.147Z,13.57
2019-04-21T18:22:45.488Z,13.49
2019-04-21T18:25:00.307Z,13.41
2019-04-21T18:27:02.480Z,13.32
2019-04-21T18:29:07.816Z,13.24
2019-04-21T18:31:14.757Z,13.14
2019-04-21T18:33:28.062Z,13.06
2019-04-21T18:35:37.542Z,12.98
2019-04-21T18:37:49.656Z,12.89
2019-04-21T18:40:05.051Z,12.83
2019-04-21T18:42:28.125Z,12.80
2019-04-21T18:44:53.531Z,12.73
2019-04-21T18:47:10.631Z,12.63
2019-04-21T18:49:02.604Z,12.51
2019-04-21T18:51:13.920Z,12.41
2019-04-21T18:53:44.816Z,12.32
2019-04-21T18:55:45.137Z,12.30
2019-04-21T18:57:51.048Z,12.25
2019-04-21T18:59:57.513Z,12.19
2019-04-21T19:02:09.892Z,12.15
2019-04-21T19:04:22.499Z,12.06
2019-04-21T19:06:48.336Z,11.98
2019-04-21T19:09:01.109Z,11.95
2019-04-21T19:11:10.382Z,11.94
2019-04-21T19:15:31.718Z,11.86
2019-04-21T19:20:02.626Z,11.75
2019-04-21T19:22:00.073Z,11.75
2019-04-21T19:24:17.984Z,11.70
2019-04-21T19:26:32.503Z,11.65
2019-04-21T19:28:38.005Z,11.57
2019-04-21T19:30:49.666Z,11.50
2019-04-21T19:32:54.509Z,11.46
2019-04-21T19:34:48.365Z,11.39
2019-04-21T19:37:03.506Z,11.35
2019-04-21T19:39:18.607Z,11.27
2019-04-21T19:41:32.412Z,11.28
2019-04-21T19:43:48.867Z,11.20
2019-04-21T19:45:56.323Z,11.20
2019-04-21T19:48:05.330Z,11.18
2019-04-21T19:50:18.103Z,11.12
2019-04-21T19:52:20.393Z,11.05
2019-04-21T19:54:25.163Z,11.02
2019-04-21T19:56:27.946Z,11.07
2019-04-21T19:58:39.069Z,11.12
2019-04-21T20:00:48.432Z,11.11
2019-04-21T20:02:54.860Z,11.11
2019-04-21T20:05:13.632Z,11.01
2019-04-21T20:07:32.702Z,10.95
2019-04-21T20:09:40.788Z,10.87
2019-04-21T20:11:52.246Z,10.78
2019-04-21T20:14:33.971Z,10.71
2019-04-21T20:16:12.944Z,10.67
2019-04-21T20:18:16.522Z,10.60
2019-04-21T20:20:13.194Z,10.53
2019-04-21T20:22:23.991Z,10.49
2019-04-21T20:24:31.901Z,10.42
2019-04-21T20:26:41.566Z,10.39
2019-04-21T20:28:57.162Z,10.34
2019-04-21T20:31:14.803Z,10.29
2019-04-21T20:33:41.292Z,10.24
2019-04-21T20:35:40.455Z,10.19
2019-04-21T20:37:32.110Z,10.15
2019-04-21T20:39:38.269Z,10.11
2019-04-21T20:41:46.748Z,10.10
2019-04-21T20:44:00.496Z,10.04
2019-04-21T20:46:08.265Z,9.98
2019-04-21T20:48:08.175Z,9.96
2019-04-21T20:50:23.256Z,9.97
2019-04-21T20:52:36.899Z,9.95
2019-04-21T20:54:43.295Z,9.92
2019-04-21T20:56:51.197Z,9.89
2019-04-21T20:59:00.893Z,9.81
2019-04-21T21:01:31.281Z,9.76
2019-04-21T21:03:23.418Z,9.75
2019-04-21T21:05:24.761Z,9.71
2019-04-21T21:09:43.018Z,9.59
2019-04-21T21:11:56.755Z,9.53
2019-04-21T21:14:01.931Z,9.51
2019-04-21T21:16:14.009Z,9.46
2019-04-21T21:18:35.566Z,9.54
2019-04-21T21:20:25.756Z,9.51
2019-04-21T21:22:33.066Z,9.48
2019-04-21T21:24:50.480Z,9.39
2019-04-21T21:26:52.344Z,9.33
2019-04-21T21:28:52.053Z,9.24
2019-04-21T21:31:07.268Z,9.16
2019-04-21T21:33:12.594Z,9.10
2019-04-21T21:35:21.845Z,9.10
2019-04-21T21:37:36.885Z,9.14
2019-04-21T21:39:48.859Z,9.18
2019-04-21T21:41:34.242Z,9.19
2019-04-21T21:43:42.179Z,9.15
2019-04-21T21:45:55.575Z,9.12
2019-04-21T21:48:20.470Z,9.09
2019-04-21T21:50:17.174Z,9.11
2019-04-21T21:52:32.769Z,9.11
2019-04-21T21:54:25.569Z,9.06
2019-04-21T21:56:34.253Z,8.97
2019-04-21T21:58:42.885Z,8.88
2019-04-21T22:00:58.456Z,8.76
2019-04-21T22:03:12.936Z,8.72
2019-04-21T22:05:16.957Z,8.65
2019-04-21T22:07:26.936Z,8.60
2019-04-21T22:09:28.470Z,8.55
2019-04-21T22:11:35.892Z,8.51
2019-04-21T22:13:50.929Z,8.46
2019-04-21T22:15:56.407Z,8.39
2019-04-21T22:18:36.174Z,8.32
2019-04-21T22:20:28.233Z,8.27
2019-04-21T22:22:38.998Z,8.21
2019-04-21T22:24:46.892Z,8.13
2019-04-21T22:26:41.093Z,8.04
2019-04-21T22:28:47.689Z,7.93
2019-04-21T22:30:55.159Z,7.85
2019-04-21T22:33:08.010Z,7.76
2019-04-21T22:35:21.928Z,7.67
2019-04-21T22:37:33.849Z,7.59
2019-04-21T22:39:44.709Z,7.53
2019-04-21T22:41:41.199Z,7.46
2019-04-21T22:43:49.326Z,7.37
2019-04-21T22:45:55.869Z,7.34
2019-04-21T22:48:08.726Z,7.29
2019-04-21T22:50:14.784Z,7.25
2019-04-21T22:52:24.571Z,7.21
2019-04-21T22:54:36.237Z,7.16
2019-04-21T22:56:48.344Z,7.13
2019-04-21T22:58:48.287Z,7.08
2019-04-21T23:00:58.596Z,7.01
2019-04-21T23:03:09.767Z,6.97
2019-04-21T23:05:11.527Z,6.94
2019-04-21T23:07:22.154Z,6.92
2019-04-21T23:09:26.700Z,6.88
2019-04-21T23:11:37.629Z,6.83
2019-04-21T23:13:45.121Z,6.80
2019-04-21T23:15:56.766Z,6.79
2019-04-21T23:18:22.069Z,6.77
2019-04-21T23:20:26.569Z,6.76
2019-04-21T23:22:49.257Z,6.72
2019-04-21T23:24:49.972Z,6.68
2019-04-21T23:26:49.329Z,6.66
2019-04-21T23:29:01.928Z,6.64
2019-04-21T23:31:12.438Z,6.62
2019-04-21T23:33:06.096Z,6.57
2019-04-21T23:35:18.318Z,6.52
2019-04-21T23:37:20.262Z,6.48
2019-04-21T23:39:30.125Z,6.47
2019-04-21T23:41:36.161Z,6.43
2019-04-21T23:43:44.341Z,6.38
2019-04-21T23:45:50.133Z,6.37
2019-04-21T23:48:10.705Z,6.33
2019-04-21T23:50:23.407Z,6.29
2019-04-21T23:52:17.937Z,6.25
2019-04-21T23:54:25.212Z,6.19
2019-04-21T23:56:37.227Z,6.17
2019-04-21T23:58:40.282Z,6.13
